Time;durP1;ratioP1;P1;durP2;ratioP2;P2;SDS_P1;SDS_P2;PMS_P1;PMS_P2;Temp;Humidity;BMP_temperature;BMP_pressure;BME280_temperature;BME280_humidity;BME280_pressure;Samples;Min_cycle;Max_cycle;Signal;HPM_P1;HPM_P2
2023/03/25 00:02:12;;;;;;;1.77;0.95;;;;;;;9.29;100.00;99822.53;6274156;28;20452;-68
2023/03/25 00:05:14;;;;;;;0.82;0.65;;;;;;;9.27;100.00;99812.13;6274087;28;20049;-68
2023/03/25 00:08:15;;;;;;;2.33;0.85;;;;;;;9.34;100.00;99812.59;6274297;28;20508;-68
2023/03/25 00:11:17;;;;;;;3.10;0.80;;;;;;;9.38;100.00;99814.06;6274097;28;20126;-68
2023/03/25 00:14:18;;;;;;;6.38;0.82;;;;;;;9.30;100.00;99816.31;6273833;28;20052;-69
2023/03/25 00:17:22;;;;;;;0.75;0.50;;;;;;;9.28;100.00;99812.97;6275151;28;20391;-68
2023/03/25 00:20:23;;;;;;;3.17;0.90;;;;;;;9.40;100.00;99825.28;6278705;28;20041;-68
2023/03/25 00:23:25;;;;;;;2.05;0.90;;;;;;;9.37;100.00;99817.63;6278330;28;20425;-68
2023/03/25 00:26:28;;;;;;;1.35;0.85;;;;;;;9.29;100.00;99817.28;6278350;28;20045;-68
2023/03/25 00:29:30;;;;;;;1.05;0.70;;;;;;;9.23;100.00;99813.28;6278520;28;20425;-68
2023/03/25 00:32:32;;;;;;;1.60;0.65;;;;;;;9.25;100.00;99815.78;6277868;28;20046;-68
2023/03/25 00:35:34;;;;;;;3.60;0.75;;;;;;;9.29;100.00;99805.00;6278264;28;20055;-68
2023/03/25 00:38:36;;;;;;;3.92;1.15;;;;;;;9.30;100.00;99811.94;6278151;28;20049;-68
2023/03/25 00:41:40;;;;;;;2.20;0.88;;;;;;;9.28;100.00;99812.97;6278055;28;20041;-68
2023/03/25 00:44:42;;;;;;;2.65;0.57;;;;;;;9.24;100.00;99819.34;6278046;28;20109;-68
2023/03/25 00:47:45;;;;;;;3.33;0.73;;;;;;;9.19;100.00;99814.41;6277886;28;20045;-68
2023/03/25 00:50:47;;;;;;;0.40;0.40;;;;;;;9.16;100.00;99817.19;6277897;28;20056;-68
2023/03/25 00:53:51;;;;;;;3.55;0.95;;;;;;;9.19;100.00;99821.41;6277981;28;20052;-68
2023/03/25 00:56:53;;;;;;;5.32;0.93;;;;;;;9.15;100.00;99820.75;6277035;28;20132;-68
2023/03/25 00:59:54;;;;;;;1.10;0.63;;;;;;;9.20;100.00;99810.81;6277944;28;20056;-68
2023/03/25 01:02:57;;;;;;;0.63;0.40;;;;;;;9.15;100.00;99813.75;6277731;28;20051;-68
2023/03/25 01:05:58;;;;;;;2.85;0.95;;;;;;;9.18;100.00;99815.34;6277432;28;20048;-68
2023/03/25 01:09:02;;;;;;;5.72;0.95;;;;;;;9.21;100.00;99814.28;6277240;28;20049;-68
2023/03/25 01:12:03;;;;;;;3.00;1.08;;;;;;;9.23;100.00;99810.66;6277700;28;20464;-68
2023/03/25 01:15:06;;;;;;;3.22;1.35;;;;;;;9.26;100.00;99809.59;6277306;28;20044;-69
2023/03/25 01:18:09;;;;;;;2.17;0.75;;;;;;;9.20;100.00;99802.13;6276914;28;20048;-68
2023/03/25 01:21:10;;;;;;;4.15;0.60;;;;;;;9.19;100.00;99796.03;6277333;28;20048;-68
2023/03/25 01:24:14;;;;;;;3.80;1.02;;;;;;;9.28;100.00;99803.31;6277120;28;20367;-68
2023/03/25 01:27:15;;;;;;;3.13;1.25;;;;;;;9.22;100.00;99795.88;6276525;28;20128;-69
2023/03/25 01:30:17;;;;;;;5.13;1.55;;;;;;;9.39;100.00;99789.53;6276810;28;20052;-68
2023/03/25 01:33:20;;;;;;;3.50;1.15;;;;;;;9.42;100.00;99793.75;6277119;28;20048;-68
2023/03/25 01:36:23;;;;;;;5.53;2.00;;;;;;;9.40;100.00;99799.06;6276737;28;20052;-69
2023/03/25 01:39:24;;;;;;;4.72;1.42;;;;;;;9.50;100.00;99791.47;6277192;28;20053;-68
2023/03/25 01:42:26;;;;;;;2.08;1.33;;;;;;;9.46;100.00;99782.97;6276578;28;20041;-69
2023/03/25 01:45:29;;;;;;;3.97;2.15;;;;;;;9.39;100.00;99803.47;6276774;28;20429;-68
2023/03/25 01:48:35;;;;;;;3.85;1.92;;;;;;;9.42;100.00;99793.75;6276657;28;20041;-68
2023/03/25 01:51:41;;;;;;;4.10;2.45;;;;;;;9.28;100.00;99810.34;6276694;28;20045;-68
2023/03/25 01:54:44;;;;;;;3.53;1.55;;;;;;;9.19;100.00;99787.34;6276384;28;20049;-69
2023/03/25 01:57:47;;;;;;;2.50;1.63;;;;;;;9.04;100.00;99790.00;6275903;28;20049;-68
2023/03/25 02:00:50;;;;;;;2.97;1.70;;;;;;;9.05;100.00;99785.59;6276445;28;20060;-69
2023/03/25 02:04:01;;;;;;;3.42;2.13;;;;;;;9.04;100.00;99791.78;6276210;28;20049;-68
2023/03/25 02:07:06;;;;;;;2.25;1.45;;;;;;;8.92;100.00;99793.38;6275845;28;20076;-68
2023/03/25 02:10:10;;;;;;;3.25;1.45;;;;;;;8.95;100.00;99792.31;6275989;28;20049;-69
2023/03/25 02:13:12;;;;;;;1.15;0.93;;;;;;;8.97;100.00;99786.06;6276101;28;20072;-69
2023/03/25 02:16:23;;;;;;;1.70;1.23;;;;;;;8.94;100.00;99781.00;6275540;28;20523;-68
2023/03/25 02:19:46;;;;;;;1.38;1.02;;;;;;;8.95;100.00;99776.59;6275937;28;20052;-68
2023/03/25 02:23:27;;;;;;;2.15;1.70;;;;;;;8.89;100.00;99783.06;6275694;28;20377;-68
2023/03/25 02:27:12;;;;;;;3.42;1.13;;;;;;;8.92;100.00;99782.88;6275126;28;20041;-69
2023/03/25 02:30:48;;;;;;;2.30;1.02;;;;;;;8.96;100.00;99786.16;6265886;28;20052;-68
2023/03/25 02:34:19;;;;;;;1.35;1.00;;;;;;;9.01;100.00;99771.81;6275682;28;20056;-68
2023/03/25 02:37:36;;;;;;;1.45;1.13;;;;;;;9.02;100.00;99773.50;6275211;28;20053;-68
2023/03/25 02:40:44;;;;;;;2.22;1.38;;;;;;;9.02;100.00;99776.13;6275139;28;20442;-68
2023/03/25 02:43:54;;;;;;;6.07;1.73;;;;;;;9.02;100.00;99780.53;6275639;28;20041;-68
2023/03/25 02:47:00;;;;;;;5.18;1.60;;;;;;;9.00;100.00;99777.19;6274863;28;20052;-68
2023/03/25 02:50:06;;;;;;;5.93;1.85;;;;;;;9.01;100.00;99766.59;6275465;28;20045;-68
2023/03/25 02:53:12;;;;;;;4.65;1.65;;;;;;;8.98;100.00;99766.78;6275243;28;20124;-68
2023/03/25 02:56:21;;;;;;;1.80;1.30;;;;;;;9.01;100.00;99748.25;6274817;28;20051;-68
2023/03/25 02:59:23;;;;;;;1.50;1.40;;;;;;;9.05;100.00;99754.13;6275184;28;20587;-69
2023/03/25 03:02:31;;;;;;;3.45;2.00;;;;;;;9.03;100.00;99743.72;6275278;28;20060;-68
2023/03/25 03:05:34;;;;;;;4.07;1.80;;;;;;;9.01;100.00;99748.25;6274651;28;20047;-69
2023/03/25 03:08:50;;;;;;;4.30;1.83;;;;;;;9.03;100.00;99745.50;6274801;28;20342;-68
2023/03/25 03:12:04;;;;;;;3.35;1.58;;;;;;;8.97;100.00;99751.16;6275050;28;20049;-68
2023/03/25 03:15:17;;;;;;;3.85;1.58;;;;;;;9.03;100.00;99748.97;6274660;28;20045;-68
2023/03/25 03:18:33;;;;;;;3.90;1.60;;;;;;;9.13;100.00;99752.72;6272952;28;20052;-68
2023/03/25 03:21:38;;;;;;;5.30;1.38;;;;;;;9.10;100.00;99750.28;6274952;28;20049;-68
2023/03/25 03:24:41;;;;;;;3.28;1.63;;;;;;;9.12;100.00;99739.69;6266254;28;20337;-68
2023/03/25 03:27:49;;;;;;;1.77;1.08;;;;;;;9.11;100.00;99744.09;6273609;28;20049;-69
2023/03/25 03:30:58;;;;;;;4.22;1.48;;;;;;;9.09;100.00;99740.75;6273849;28;20052;-68
2023/03/25 03:34:02;;;;;;;;;;;;;;;9.09;100.00;99739.91;6275129;28;20191;-68
2023/03/25 03:37:05;;;;;;;1.90;0.85;;;;;;;9.07;100.00;99742.59;6274237;28;19920;-68
2023/03/25 03:40:13;;;;;;;4.55;1.38;;;;;;;9.06;100.00;99748.78;6272757;28;20398;-68
2023/03/25 03:43:21;;;;;;;3.92;1.15;;;;;;;9.13;100.00;99738.78;6265347;28;20052;-68
2023/03/25 03:46:27;;;;;;;4.30;1.70;;;;;;;9.13;100.00;99742.25;6271455;28;20051;-68
2023/03/25 03:49:32;;;;;;;6.78;1.35;;;;;;;9.16;100.00;99738.56;6266030;28;20049;-68
2023/03/25 03:52:37;;;;;;;5.65;2.15;;;;;;;9.19;100.00;99730.50;6269305;28;20378;-68
2023/03/25 03:55:42;;;;;;;4.47;1.40;;;;;;;9.14;100.00;99732.59;6275560;28;20047;-68
2023/03/25 03:58:45;;;;;;;8.40;1.77;;;;;;;9.14;100.00;99730.81;6271900;28;20049;-69
2023/03/25 04:01:52;;;;;;;3.38;1.40;;;;;;;9.09;100.00;99740.75;6278985;28;20049;-68
2023/03/25 04:04:54;;;;;;;1.83;1.20;;;;;;;9.10;100.00;99749.44;6278763;28;20055;-68
2023/03/25 04:08:02;;;;;;;4.43;1.70;;;;;;;9.17;100.00;99732.38;6278868;28;20052;-68
2023/03/25 04:11:08;;;;;;;4.82;1.42;;;;;;;9.08;100.00;99743.44;6278906;28;20460;-69
2023/03/25 04:14:13;;;;;;;2.83;1.60;;;;;;;9.09;100.00;99732.88;6278820;28;20052;-68
2023/03/25 04:17:14;;;;;;;3.33;1.10;;;;;;;9.17;100.00;99735.00;6267556;28;20044;-68
2023/03/25 04:20:22;;;;;;;2.10;0.98;;;;;;;9.18;100.00;99733.25;6261272;28;20052;-68
2023/03/25 04:23:23;;;;;;;7.15;1.85;;;;;;;9.23;100.00;99728.53;6256941;28;20045;-67
2023/03/25 04:26:25;;;;;;;1.60;0.85;;;;;;;9.17;100.00;99742.03;6256851;28;20041;-67
2023/03/25 04:29:27;;;;;;;3.28;1.27;;;;;;;9.17;100.00;99737.63;6256572;28;20053;-69
2023/03/25 04:32:30;;;;;;;3.22;0.90;;;;;;;9.11;100.00;99759.81;6258286;28;20497;-69
2023/03/25 04:35:32;;;;;;;4.72;1.17;;;;;;;9.17;100.00;99758.59;6256222;28;20124;-70
2023/03/25 04:38:36;;;;;;;2.03;1.00;;;;;;;9.14;100.00;99750.94;6255241;28;20043;-69
2023/03/25 04:41:38;;;;;;;7.40;1.00;;;;;;;9.12;100.00;99748.41;6253797;28;20052;-69
2023/03/25 04:44:40;;;;;;;4.10;1.38;;;;;;;9.08;100.00;99751.31;6249826;28;20425;-69
2023/03/25 04:47:45;;;;;;;5.80;1.60;;;;;;;9.06;100.00;99753.19;6255131;28;20041;-69
2023/03/25 04:50:47;;;;;;;1.83;0.95;;;;;;;9.10;100.00;99755.53;6253749;28;20302;-67
2023/03/25 04:53:48;;;;;;;6.90;1.40;;;;;;;9.13;100.00;99754.50;6255365;28;20056;-69
2023/03/25 04:56:51;;;;;;;0.73;0.57;;;;;;;9.11;100.00;99754.56;6257114;28;20056;-69
2023/03/25 04:59:53;;;;;;;5.57;1.02;;;;;;;9.18;100.00;99752.44;6259890;28;20057;-70
2023/03/25 05:02:55;;;;;;;5.82;1.33;;;;;;;9.10;100.00;99762.56;6261049;28;20041;-67
2023/03/25 05:05:57;;;;;;;3.42;0.90;;;;;;;9.16;100.00;99759.53;6256760;28;20041;-66
2023/03/25 05:09:00;;;;;;;4.53;0.85;;;;;;;9.06;100.00;99753.19;6257680;28;20129;-67
2023/03/25 05:12:01;;;;;;;5.43;0.65;;;;;;;9.04;100.00;99755.09;6257804;28;20052;-67
2023/03/25 05:15:05;;;;;;;4.85;0.77;;;;;;;9.04;100.00;99761.16;6256167;28;20361;-67
2023/03/25 05:18:09;;;;;;;4.20;0.60;;;;;;;9.00;100.00;99759.66;6274296;28;20048;-66
2023/03/25 05:21:11;;;;;;;2.95;1.50;;;;;;;9.02;100.00;99756.94;6276332;28;20045;-70
2023/03/25 05:24:13;;;;;;;1.30;0.80;;;;;;;9.01;100.00;99763.13;6276982;28;20103;-67
2023/03/25 05:27:18;;;;;;;7.22;1.95;;;;;;;8.96;100.00;99757.34;6276527;28;20048;-67
2023/03/25 05:30:21;;;;;;;3.40;1.17;;;;;;;8.95;100.00;99756.50;6276926;28;20045;-77
2023/03/25 05:33:22;;;;;;;4.22;1.27;;;;;;;9.06;100.00;99756.66;6275559;28;20049;-78
2023/03/25 05:36:24;;;;;;;4.43;1.02;;;;;;;9.02;100.00;99749.91;6276548;28;20044;-78
2023/03/25 05:39:25;;;;;;;2.22;1.33;;;;;;;8.89;100.00;99749.00;6276734;28;20133;-78
2023/03/25 05:42:27;;;;;;;4.53;1.33;;;;;;;8.82;100.00;99759.03;6274892;28;20048;-78
2023/03/25 05:45:29;;;;;;;3.42;2.22;;;;;;;8.93;100.00;99774.06;6276258;28;20041;-78
2023/03/25 05:48:31;;;;;;;5.50;1.30;;;;;;;8.97;100.00;99766.88;6275876;28;20053;-78
2023/03/25 05:51:36;;;;;;;6.78;1.90;;;;;;;8.89;100.00;99773.41;6275114;28;20048;-75
2023/03/25 05:54:40;;;;;;;2.67;0.95;;;;;;;8.76;100.00;99771.66;6275961;28;20052;-75
2023/03/25 05:57:42;;;;;;;3.08;1.45;;;;;;;8.65;100.00;99774.94;6274605;28;20126;-75
2023/03/25 06:00:46;;;;;;;1.70;1.38;;;;;;;8.73;100.00;99772.69;6275445;28;20041;-75
2023/03/25 06:03:47;;;;;;;5.05;1.50;;;;;;;8.71;100.00;99768.47;6276090;28;20060;-78
2023/03/25 06:06:48;;;;;;;1.45;1.27;;;;;;;8.68;100.00;99772.16;6275344;28;20100;-76
2023/03/25 06:09:53;;;;;;;2.85;1.58;;;;;;;8.63;100.00;99768.97;6275895;28;20056;-78
2023/03/25 06:12:54;;;;;;;5.20;1.75;;;;;;;8.75;100.00;99762.13;6275669;28;20049;-78
2023/03/25 06:15:58;;;;;;;4.72;1.80;;;;;;;8.81;100.00;99766.97;6273817;28;20516;-76
2023/03/25 06:19:00;;;;;;;2.08;1.50;;;;;;;8.74;100.00;99771.75;6274979;28;20044;-76
2023/03/25 06:22:02;;;;;;;2.50;1.40;;;;;;;8.81;100.00;99780.06;6275216;28;20055;-76
2023/03/25 06:25:04;;;;;;;1.58;1.10;;;;;;;8.81;100.00;99782.69;6275280;28;20075;-76
2023/03/25 06:28:05;;;;;;;4.25;1.50;;;;;;;8.80;100.00;99778.38;6275146;28;20045;-76
2023/03/25 06:31:15;;;;;;;2.83;1.50;;;;;;;8.86;100.00;99781.50;6275279;28;20041;-76
2023/03/25 06:34:16;;;;;;;3.08;1.73;;;;;;;8.79;100.00;99789.81;6273316;28;20048;-76
2023/03/25 06:37:18;;;;;;;3.63;1.70;;;;;;;8.86;100.00;99785.88;6273360;28;20049;-76
2023/03/25 06:40:21;;;;;;;2.97;1.50;;;;;;;8.89;100.00;99790.91;6266713;28;20044;-76
2023/03/25 06:43:22;;;;;;;1.80;1.40;;;;;;;8.96;100.00;99807.97;6272735;28;20049;-76
2023/03/25 06:46:25;;;;;;;6.32;1.45;;;;;;;8.81;100.00;99791.41;6273764;28;20055;-77
2023/03/25 06:49:26;;;;;;;1.92;1.20;;;;;;;8.73;100.00;99800.69;6274709;28;20055;-76
2023/03/25 06:52:27;;;;;;;3.50;1.50;;;;;;;8.46;100.00;99796.16;6270316;28;20045;-76
2023/03/25 06:55:29;;;;;;;2.63;1.58;;;;;;;8.45;100.00;99791.00;6274612;28;20041;-75
2023/03/25 06:58:33;;;;;;;3.72;1.42;;;;;;;8.41;100.00;99794.75;6273721;28;20159;-75
2023/03/25 07:01:36;;;;;;;5.63;1.95;;;;;;;8.50;100.00;99797.66;6274822;28;20074;-76
2023/03/25 07:04:37;;;;;;;3.13;1.80;;;;;;;8.47;100.00;99799.63;6274579;28;20041;-76
2023/03/25 07:07:39;;;;;;;2.88;1.58;;;;;;;8.49;100.00;99797.75;6271798;28;20430;-76
2023/03/25 07:10:40;;;;;;;8.45;2.05;;;;;;;8.41;100.00;99802.63;6272263;28;20052;-76
2023/03/25 07:13:41;;;;;;;7.40;2.53;;;;;;;8.46;100.00;99800.56;6274281;28;20056;-76
2023/03/25 07:16:44;;;;;;;4.07;1.88;;;;;;;8.37;100.00;99800.16;6274232;28;20041;-76
2023/03/25 07:19:45;;;;;;;7.25;2.00;;;;;;;8.42;100.00;99799.91;6273602;28;20052;-75
2023/03/25 07:22:47;;;;;;;9.32;1.95;;;;;;;8.53;100.00;99797.47;6274535;28;20056;-76
2023/03/25 07:25:48;;;;;;;7.03;2.03;;;;;;;8.55;100.00;99797.38;6274833;28;20037;-76
2023/03/25 07:28:50;;;;;;;2.45;1.80;;;;;;;8.61;100.00;99786.53;6279332;28;20056;-76
2023/03/25 07:31:52;;;;;;;3.83;2.25;;;;;;;8.75;100.00;99797.00;6276886;28;20060;-76
2023/03/25 07:34:54;;;;;;;5.78;1.75;;;;;;;8.89;100.00;99791.75;6279274;28;20052;-76
2023/03/25 07:37:55;;;;;;;2.63;1.80;;;;;;;8.94;100.00;99798.50;6279223;28;20460;-76
2023/03/25 07:40:56;;;;;;;6.43;1.83;;;;;;;9.11;100.00;99790.44;6279137;28;20053;-76
2023/03/25 07:43:58;;;;;;;2.03;1.50;;;;;;;9.25;100.00;99794.81;6278943;28;20157;-78
2023/03/25 07:47:00;;;;;;;4.13;2.63;;;;;;;9.19;100.00;99795.22;6277909;28;20045;-76
2023/03/25 07:50:02;;;;;;;2.53;1.90;;;;;;;9.16;100.00;99785.75;6277541;28;20052;-76
2023/03/25 07:53:03;;;;;;;3.53;2.00;;;;;;;9.28;100.00;99786.75;6276713;28;20384;-68
2023/03/25 07:56:06;;;;;;;4.55;1.35;;;;;;;9.24;100.00;99793.13;6277800;28;20048;-67
2023/03/25 07:59:08;;;;;;;1.80;1.15;;;;;;;9.19;100.00;99793.41;6276894;28;20041;-69
2023/03/25 08:02:12;;;;;;;3.10;1.20;;;;;;;9.24;100.00;99798.38;6278611;28;20369;-67
2023/03/25 08:05:19;;;;;;;4.25;1.75;;;;;;;9.18;100.00;99776.03;6278872;28;20048;-68
2023/03/25 08:08:21;;;;;;;3.17;2.05;;;;;;;9.21;100.00;99790.69;6278749;28;20378;-67
2023/03/25 08:11:22;;;;;;;4.03;1.95;;;;;;;9.17;100.00;99800.53;6278810;28;20140;-68
2023/03/25 08:14:24;;;;;;;3.33;2.40;;;;;;;9.20;100.00;99791.63;6278736;28;20055;-69
2023/03/25 08:17:26;;;;;;;13.27;2.67;;;;;;;9.28;100.00;99784.97;6278679;28;20049;-67
2023/03/25 08:20:28;;;;;;;9.75;2.55;;;;;;;9.32;100.00;99793.50;6278231;28;20044;-69
2023/03/25 08:23:29;;;;;;;4.15;2.38;;;;;;;9.34;100.00;99802.09;6273117;28;20046;-69
2023/03/25 08:26:32;;;;;;;3.20;1.92;;;;;;;9.27;100.00;99799.03;6277201;28;20037;-69
2023/03/25 08:29:34;;;;;;;7.72;2.22;;;;;;;9.26;100.00;99799.94;6277639;28;20067;-70
2023/03/25 08:32:37;;;;;;;4.47;2.22;;;;;;;9.19;100.00;99811.78;6278430;28;20505;-70
2023/03/25 08:35:39;;;;;;;6.65;2.53;;;;;;;9.25;100.00;99795.66;6277630;28;20053;-69
2023/03/25 08:38:40;;;;;;;6.30;2.35;;;;;;;9.27;100.00;99829.66;6276064;28;20041;-69
2023/03/25 08:41:42;;;;;;;11.27;2.08;;;;;;;9.22;100.00;99800.22;6277717;28;20037;-71
2023/03/25 08:44:44;;;;;;;2.90;1.95;;;;;;;9.35;100.00;99803.75;6270033;28;20049;-69
2023/03/25 08:47:46;;;;;;;5.25;1.95;;;;;;;9.46;100.00;99796.06;6268454;28;20048;-67
2023/03/25 08:50:48;;;;;;;2.88;1.90;;;;;;;9.59;100.00;99791.72;6276724;28;20071;-70
2023/03/25 08:53:49;;;;;;;2.83;1.58;;;;;;;9.70;100.00;99803.31;6277514;28;20504;-70
2023/03/25 08:56:51;;;;;;;6.10;1.70;;;;;;;9.81;100.00;99778.06;6277575;28;20053;-70
2023/03/25 08:59:53;;;;;;;3.03;1.75;;;;;;;10.08;100.00;99790.28;6277496;28;20055;-71
2023/03/25 09:02:57;;;;;;;3.25;1.38;;;;;;;10.18;100.00;99777.41;6274830;28;20053;-70
2023/03/25 09:06:04;;;;;;;5.45;1.30;;;;;;;10.18;100.00;99775.63;6272059;28;20053;-70
2023/03/25 09:09:05;;;;;;;2.58;1.00;;;;;;;10.17;100.00;99787.03;6277408;28;20048;-70
2023/03/25 09:12:07;;;;;;;1.63;0.98;;;;;;;9.73;100.00;99848.56;6277549;28;20056;-70
2023/03/25 09:15:11;;;;;;;2.65;0.75;;;;;;;8.78;100.00;99856.25;6277546;28;20045;-71
2023/03/25 09:18:14;;;;;;;5.13;0.50;;;;;;;8.07;100.00;99846.41;6277395;28;20049;-68
2023/03/25 09:21:15;;;;;;;3.72;0.30;;;;;;;7.69;100.00;99830.28;6271877;28;20045;-69
2023/03/25 09:24:16;;;;;;;0.38;0.38;;;;;;;7.55;100.00;99837.13;6275794;28;20052;-69
2023/03/25 09:27:18;;;;;;;5.85;0.40;;;;;;;7.62;100.00;99840.22;6266730;28;20055;-69
2023/03/25 09:30:19;;;;;;;2.72;0.40;;;;;;;7.50;100.00;99841.78;6265309;28;20041;-71
2023/03/25 09:33:22;;;;;;;4.47;0.52;;;;;;;7.37;100.00;99849.44;6273004;28;20053;-69
2023/03/25 09:36:24;;;;;;;0.45;0.40;;;;;;;7.36;100.00;99863.44;6274756;28;20037;-68
2023/03/25 09:39:26;;;;;;;0.40;0.20;;;;;;;7.31;100.00;99861.97;6270623;28;20056;-69
2023/03/25 09:42:40;;;;;;;0.77;0.52;;;;;;;7.19;100.00;99847.81;6265817;28;20054;-69
2023/03/25 09:45:45;;;;;;;1.38;0.35;;;;;;;7.19;100.00;99834.75;6262761;28;20041;-69
2023/03/25 09:48:50;;;;;;;1.33;0.47;;;;;;;7.24;100.00;99827.50;6262265;28;20079;-70
2023/03/25 09:51:53;;;;;;;5.82;0.68;;;;;;;7.35;100.00;99826.91;6261033;28;20042;-69
2023/03/25 09:54:59;;;;;;;0.82;0.25;;;;;;;7.55;100.00;99820.59;6257165;28;20124;-69
2023/03/25 09:58:05;;;;;;;2.05;0.60;;;;;;;7.74;100.00;99823.88;6270021;28;20066;-69
2023/03/25 10:01:17;;;;;;;6.38;0.57;;;;;;;7.86;100.00;99819.72;6254101;28;20052;-68
2023/03/25 10:04:46;;;;;;;1.55;0.35;;;;;;;8.05;100.00;99815.13;6255361;28;20682;-69
2023/03/25 10:08:01;;;;;;;1.90;0.60;;;;;;;8.11;100.00;99806.91;6264939;28;20044;-69
2023/03/25 10:11:06;;;;;;;4.13;1.30;;;;;;;8.36;100.00;99808.09;6257607;28;20497;-69
2023/03/25 10:14:11;;;;;;;1.75;1.02;;;;;;;8.54;100.00;99809.66;6246686;28;20049;-69
2023/03/25 10:17:20;;;;;;;2.50;1.20;;;;;;;8.57;100.00;99813.84;6251849;28;20052;-69
2023/03/25 10:20:40;;;;;;;2.20;1.30;;;;;;;8.61;100.00;99808.31;6254750;28;20056;-69
2023/03/25 10:23:46;;;;;;;2.85;1.58;;;;;;;8.66;100.00;99808.03;6260014;28;20172;-74
2023/03/25 10:26:53;;;;;;;3.15;1.50;;;;;;;8.69;100.00;99805.25;6255820;28;20184;-69
2023/03/25 10:30:00;;;;;;;5.43;1.08;;;;;;;8.90;100.00;99810.94;6249778;28;20058;-69
2023/03/25 10:33:05;;;;;;;2.33;1.60;;;;;;;9.12;100.00;99802.59;6254853;28;20122;-69
2023/03/25 10:36:15;;;;;;;7.38;1.88;;;;;;;9.30;100.00;99803.22;6255823;28;20064;-69
2023/03/25 10:39:18;;;;;;;2.45;1.65;;;;;;;9.39;100.00;99806.09;6253154;28;20479;-69
2023/03/25 10:42:25;;;;;;;3.72;1.25;;;;;;;9.46;100.00;99798.69;6251727;28;20175;-69
2023/03/25 10:45:28;;;;;;;5.20;1.02;;;;;;;9.51;100.00;99794.00;6263332;28;20052;-69
2023/03/25 10:48:31;;;;;;;2.40;1.15;;;;;;;9.56;100.00;99788.47;6259685;28;20056;-69
2023/03/25 10:51:35;;;;;;;1.52;0.85;;;;;;;9.62;100.00;99795.91;6253546;28;20045;-69
2023/03/25 10:54:41;;;;;;;4.72;1.83;;;;;;;9.68;100.00;99798.16;6258024;28;20041;-69
2023/03/25 10:57:43;;;;;;;3.40;1.13;;;;;;;9.68;100.00;99803.41;6256099;28;20041;-68
2023/03/25 11:00:44;;;;;;;5.13;2.95;;;;;;;9.65;100.00;99812.31;6259320;28;20049;-68
2023/03/25 11:03:50;;;;;;;3.33;0.93;;;;;;;9.55;100.00;99820.88;6251772;28;20056;-69
2023/03/25 11:06:57;;;;;;;7.20;1.02;;;;;;;9.48;100.00;99809.91;6260064;28;20045;-69
2023/03/25 11:10:16;;;;;;;2.55;1.00;;;;;;;9.35;100.00;99816.88;6254285;28;20076;-68
2023/03/25 11:13:21;;;;;;;5.50;1.13;;;;;;;9.38;100.00;99819.31;6263037;28;20433;-68
2023/03/25 11:16:22;;;;;;;6.85;1.23;;;;;;;9.13;100.00;99826.09;6261834;28;20440;-68
2023/03/25 11:19:27;;;;;;;2.42;0.95;;;;;;;9.08;100.00;99827.31;6258767;28;20183;-68
2023/03/25 11:22:34;;;;;;;7.10;1.73;;;;;;;9.09;100.00;99815.91;6261704;28;20056;-69
2023/03/25 11:25:40;;;;;;;3.67;0.98;;;;;;;9.01;100.00;99821.63;6264670;28;20053;-69
2023/03/25 11:28:45;;;;;;;1.13;0.70;;;;;;;8.91;100.00;99819.66;6258374;28;20053;-70
2023/03/25 11:31:56;;;;;;;6.20;1.23;;;;;;;8.87;100.00;99822.47;6263607;28;20045;-69
2023/03/25 11:35:02;;;;;;;2.20;0.60;;;;;;;9.01;100.00;99821.63;6260958;28;20057;-69
2023/03/25 11:38:14;;;;;;;6.82;1.30;;;;;;;9.38;100.00;99812.28;6269501;28;20136;-68
2023/03/25 11:41:16;;;;;;;1.00;0.43;;;;;;;9.69;100.00;99805.09;6268900;28;20041;-75
2023/03/25 11:44:23;;;;;;;5.93;1.15;;;;;;;9.85;100.00;99797.88;6263795;28;20068;-71
2023/03/25 11:47:27;;;;;;;0.85;0.85;;;;;;;9.33;100.00;99800.41;6266424;28;20129;-70
2023/03/25 11:50:30;;;;;;;1.15;0.80;;;;;;;9.14;100.00;99787.63;6265428;28;20460;-70
2023/03/25 11:53:33;;;;;;;3.90;1.00;;;;;;;9.29;100.00;99781.41;6256906;28;20048;-70
2023/03/25 11:56:38;;;;;;;4.30;1.38;;;;;;;9.70;100.00;99785.78;6245503;28;20648;-71
2023/03/25 11:59:44;;;;;;;4.50;1.20;;;;;;;9.88;100.00;99784.56;6258282;28;20052;-72
2023/03/25 12:02:45;;;;;;;4.03;0.75;;;;;;;10.03;100.00;99776.63;6248633;28;20042;-72
2023/03/25 12:05:58;;;;;;;1.67;0.70;;;;;;;10.27;100.00;99764.53;6252067;28;20052;-71
2023/03/25 12:09:09;;;;;;;5.05;1.00;;;;;;;10.38;100.00;99767.25;6251050;28;20048;-72
2023/03/25 12:12:27;;;;;;;4.68;1.02;;;;;;;10.75;100.00;99762.06;6255789;28;20359;-72
2023/03/25 12:15:37;;;;;;;6.30;1.00;;;;;;;10.88;100.00;99762.06;6259240;28;20133;-71
2023/03/25 12:18:54;;;;;;;6.07;0.65;;;;;;;10.73;100.00;99758.72;6265726;28;20203;-71
2023/03/25 12:22:11;;;;;;;5.15;1.02;;;;;;;10.77;100.00;99754.09;6258502;28;20050;-71
2023/03/25 12:25:26;;;;;;;1.00;0.65;;;;;;;10.76;100.00;99769.00;6258280;28;20050;-71
2023/03/25 12:28:54;;;;;;;1.67;0.80;;;;;;;10.99;100.00;99746.38;6257974;28;20065;-71
2023/03/25 12:32:06;;;;;;;3.40;1.07;;;;;;;11.00;100.00;99760.38;6264563;28;20064;-71
2023/03/25 12:35:23;;;;;;;5.10;0.60;;;;;;;11.06;100.00;99770.44;6257283;28;20369;-71
2023/03/25 12:38:36;;;;;;;7.13;0.85;;;;;;;11.07;100.00;99759.81;6267495;28;20064;-73
2023/03/25 12:41:48;;;;;;;4.05;0.70;;;;;;;11.33;100.00;99792.13;6259451;28;20044;-74
2023/03/25 12:45:03;;;;;;;0.80;0.43;;;;;;;11.45;100.00;99753.59;6271042;28;20053;-73
2023/03/25 12:48:11;;;;;;;0.65;0.55;;;;;;;11.19;100.00;99760.72;6269644;28;20049;-72
2023/03/25 12:51:22;;;;;;;0.90;0.50;;;;;;;11.26;100.00;99761.13;6271126;28;20048;-72
2023/03/25 12:54:37;;;;;;;2.47;0.88;;;;;;;11.28;100.00;99775.00;6259960;28;20060;-72
2023/03/25 12:57:53;;;;;;;2.40;0.75;;;;;;;11.24;100.00;99778.81;6262972;28;20433;-72
2023/03/25 13:01:05;;;;;;;2.13;0.55;;;;;;;11.04;100.00;99767.94;6259060;28;20049;-72
2023/03/25 13:04:17;;;;;;;4.00;1.13;;;;;;;10.89;100.00;99771.63;6262830;28;20057;-72
2023/03/25 13:07:24;;;;;;;0.43;0.40;;;;;;;10.64;100.00;99783.00;6269680;28;20048;-72
2023/03/25 13:10:30;;;;;;;7.78;0.90;;;;;;;10.55;100.00;99783.66;6270511;28;20068;-72
2023/03/25 13:13:36;;;;;;;3.70;0.95;;;;;;;10.36;100.00;99782.28;6265997;28;20050;-72
2023/03/25 13:16:40;;;;;;;3.00;0.60;;;;;;;10.04;100.00;99779.16;6263611;28;20337;-72
2023/03/25 13:19:43;;;;;;;1.23;0.47;;;;;;;10.06;100.00;99790.38;6259542;28;20051;-72
2023/03/25 13:22:49;;;;;;;6.30;0.70;;;;;;;10.03;100.00;99790.59;6275473;28;20052;-72
2023/03/25 13:25:53;;;;;;;2.08;0.68;;;;;;;10.07;100.00;99799.94;6269582;28;20057;-72
2023/03/25 13:29:00;;;;;;;2.35;1.05;;;;;;;10.03;100.00;99785.34;6268926;28;20053;-72
2023/03/25 13:32:08;;;;;;;1.77;0.80;;;;;;;10.15;100.00;99781.06;6259982;28;20448;-72
2023/03/25 13:35:15;;;;;;;1.77;1.13;;;;;;;10.21;100.00;99782.44;6263725;28;20049;-72
2023/03/25 13:38:23;;;;;;;7.72;0.98;;;;;;;10.31;100.00;99766.00;6264951;28;20353;-72
2023/03/25 13:41:32;;;;;;;4.93;1.05;;;;;;;10.33;100.00;99765.88;6271625;28;20134;-72
2023/03/25 13:44:40;;;;;;;1.33;0.63;;;;;;;10.47;100.00;99762.31;6270284;28;20052;-72
2023/03/25 13:47:46;;;;;;;2.00;0.73;;;;;;;10.67;100.00;99759.13;6272286;28;20045;-72
2023/03/25 13:50:47;;;;;;;4.50;0.65;;;;;;;10.74;100.00;99762.19;6273488;28;20055;-73
2023/03/25 13:53:55;;;;;;;3.35;0.50;;;;;;;10.71;100.00;99768.50;6268800;28;20045;-72
2023/03/25 13:57:20;;;;;;;1.42;0.50;;;;;;;10.62;100.00;99774.38;6256614;28;20049;-71
2023/03/25 14:00:41;;;;;;;5.70;0.95;;;;;;;10.56;100.00;99790.56;6264961;28;20052;-70
2023/03/25 14:04:19;;;;;;;3.67;0.68;;;;;;;10.78;100.00;99784.69;6262067;28;20460;-72
2023/03/25 14:07:48;;;;;;;4.35;0.68;;;;;;;10.71;100.00;99786.03;6239652;28;20048;-72
2023/03/25 14:10:54;;;;;;;1.90;0.52;;;;;;;10.70;100.00;99777.31;6270242;28;20060;-72
2023/03/25 14:13:58;;;;;;;0.50;0.50;;;;;;;10.96;100.00;99767.63;6276312;28;20591;-71
2023/03/25 14:17:04;;;;;;;6.40;0.80;;;;;;;11.13;100.00;99782.22;6274596;28;20072;-71
2023/03/25 14:20:11;;;;;;;2.28;0.77;;;;;;;10.95;100.00;99778.25;6275933;28;20049;-72
2023/03/25 14:23:16;;;;;;;1.05;0.40;;;;;;;10.65;100.00;99779.44;6275101;28;20045;-74
2023/03/25 14:26:18;;;;;;;4.55;1.00;;;;;;;10.59;100.00;99787.75;6275877;28;20083;-72
2023/03/25 14:29:31;;;;;;;2.03;0.45;;;;;;;10.39;100.00;99786.47;6275777;28;20433;-72
2023/03/25 14:32:38;;;;;;;2.35;0.40;;;;;;;10.08;100.00;99778.03;6276004;28;20053;-72